Hauptseite
METAR-TAF:

METAR-TAF

Flughäfen :

Flughafen Jersey

Jersey,

Breite: 49-13N, Länge: 002-12W, Höhe: 84 m

Beobachtung

Neuester Wetterbericht von vor 16 Minuten, um 11:20 UTC
Wind 14 kt aus Süd/Südwest
Temperatur 22°C
Luftfeuchtigkeit 69%
Luftdruck 1017 hPa
Sichtweite 10 km oder mehr
Aufgelockert bewölkt in der Höhe von 3900 ft

METAR: EGJJ 191120Z 20014KT 9999 SCT039 22/16 Q1017

Zeit: 12:36 (11:36 UTC)

Prognose

Neuester Wetterbericht von vor 3 Stunden und 35 Minuten, um 08:01 UTC
Gültige Prognose vom 19 um 09 UTC bis 19 um 18 UTC
Wind 15 kt aus Südwest
Sichtweite 10 km oder mehr
Leicht bewölkt in der Höhe von 1500 ft
Zeitweise
vom 19 um 11 UTC bis 19 um 14 UTC
Durchbrochene Bewölkung in der Höhe von 1500 ft

TAF: EGJJ 190801Z 1909/1918 23015KT 9999 FEW015 TEMPO 1911/1914 BKN015

Wetterbeobachtungen und Prognosen von mehr als 4000 Flughäfen (METAR und TAF Bericht).

Die verfügbaren Stationen werden durch gelbe und rote Markierungen auf der Karte dargestellt.

Führen Sie die Maus auf sie, um den Namen der Station zu sehen.

Darauf klicken, um die Beobachtung von Wetterbeobachtungen und Prognosen zu sehen.

Um die Karte zu ändern : klicken Sie auf den grünen Tasten mit einem schwarzen Kreuz Zum Vergrößern, auf den grünen Button mit einem Gedankenstrich zu verkleinern, oder auf die grünen Pfeile für benachbarte Karten.


METAR-TAF: